Bowdoin, Maine
Current Conditions -  °F | °C
As of 9:55 PM on Friday 21 Nov 2014 (Local Time) from KLEW Reporting Station
Clear Clear  
Wind Chill: 10°   Ceiling: Unl
Heat Index: 21°   Visibility: 10mi
Dew Point:   Wind: 10mph
Humidity: 42%   Direction: 330°NNW
Pressure: 30.29"   Gusts: NA
Location:  44.05°N, 70.02°W
Report Text: KLEW 220255Z AUTO 33009KT 10SM CLR M06/M17 A3029 RMK AO1 52017
Loading
Personal Weather Stations






























Interactive Weather Map New forecast layout! Learn more

10-Day Weather Forecast

Advertisements
Track Severe Weather on mobile